Home > Products > Valid Products > TAF

000
FTUS43 KDTX 222300
TAFDTW
TAF
KDTW 222325Z 2300/2406 08005KT P6SM SCT040 BKN070 BKN150
     FM230800 05005KT 4SM BR FEW015 SCT070
     FM231000 05003KT 2SM BR SCT006
     FM231300 06004KT 5SM HZ SCT150
     FM231500 07006KT P6SM SCT040
     FM232300 12006KT P6SM SCT060=



000
FTUS43 KDTX 222300
TAFDET
TAF
KDET 222325Z 2300/2324 06007KT P6SM SCT040 BKN100
     FM230800 05005KT 4SM BR FEW015 SCT120
     FM231300 06004KT P6SM SCT040 SCT150
     FM232300 12006KT P6SM SCT060=



000
FTUS43 KDTX 222300
TAFMBS
TAF
KMBS 222325Z 2300/2324 05007KT P6SM SCT035 BKN080
     FM230700 05005KT 4SM BR FEW015 SCT080
     FM230900 05003KT 2SM BR SCT006
     FM231300 06004KT 5SM HZ SCT150
     FM231500 07006KT P6SM SCT040
     FM232100 05010KT P6SM SCT060=



000
FTUS43 KDTX 222300
TAFFNT
TAF
KFNT 222325Z 2300/2324 05007KT P6SM SCT050 BKN100
     FM230700 05005KT 4SM BR FEW015 SCT100
     FM230900 05003KT 2SM BR SCT006
     FM231300 05005KT 5SM HZ SCT150
     FM231500 07007KT P6SM SCT040
     FM232200 09007KT P6SM SCT060=



000
FTUS43 KDTX 222100 AAA
TAFDTW
TAF AMD
KDTW 222102Z 2221/2324 07005KT P6SM SCT040 BKN070 BKN200
     FM230700 05005KT 4SM BR FEW015 SCT120
     FM231000 05003KT 2SM BR SCT006
     FM231300 06004KT 5SM HZ SCT150
     FM231500 07006KT P6SM SCT040=



000
FTUS43 KDTX 221700
TAFDTW
TAF
KDTW 221738Z 2218/2324 14005KT P6SM SCT028 BKN040
     FM230100 08005KT P6SM SCT050 BKN120 OVC250
     FM230700 05005KT 4SM BR FEW015 SCT120
     FM231000 05003KT 2SM BR SCT006
     FM231300 06004KT 5SM HZ SCT150
     FM231500 07006KT P6SM SCT040=



000
FTUS43 KDTX 221700
TAFFNT
TAF
KFNT 221738Z 2218/2318 10005KT P6SM SCT028 BKN040
     FM230100 08005KT P6SM SCT050 BKN120 OVC250
     FM230600 05005KT 4SM BR FEW015 SCT120
     FM230900 05003KT 2SM BR SCT006
     FM231300 06004KT 5SM HZ SCT150
     FM231500 07006KT P6SM SCT040=



000
FTUS43 KDTX 221700
TAFMBS
TAF
KMBS 221738Z 2218/2318 07005KT P6SM SCT035 BKN050
     FM230100 08005KT P6SM SCT050 BKN120 OVC250
     FM230600 05005KT 4SM BR FEW015 SCT120
     FM230900 05003KT 2SM BR SCT006
     FM231300 06004KT 5SM HZ SCT150
     FM231500 07006KT P6SM SCT040=



000
FTUS43 KDTX 221700
TAFDET
TAF
KDET 221738Z 2218/2318 14005KT P6SM SCT028 BKN040
     FM230100 08005KT P6SM SCT050 BKN120 OVC250
     FM230900 05005KT 4SM BR FEW015 SCT120
     FM231300 06004KT P6SM SCT040 SCT150=



000
FTUS43 KDTX 221600 AAB
TAFDTW
TAF AMD
KDTW 221607Z 2216/2318 12006KT P6SM BKN015
     FM221700 14005KT P6SM SCT018 BKN050
      TEMPO 2217/2218 BKN018
     FM221900 14005KT P6SM SCT030 BKN050
     FM230100 08005KT P6SM SCT050 BKN120 OVC250
     FM230700 05005KT 4SM BR FEW015 SCT120
     FM231300 07005KT P6SM SCT150=



000
FTUS43 KDTX 221400 AAA
TAFDTW
TAF AMD
KDTW 221446Z 2215/2318 12005KT P6SM BKN012
     FM221600 12006KT P6SM SCT025
     FM221900 14005KT P6SM SCT030 BKN050
     FM230100 08005KT P6SM SCT050 BKN120 OVC250
     FM230700 05005KT 4SM BR FEW015 SCT120
     FM231300 07005KT P6SM SCT150=



000
FTUS43 KDTX 221400 AAA
TAFDET
TAF AMD
KDET 221440Z 2215/2312 08005KT P6SM SCT030
     FM221900 14005KT P6SM SCT030 BKN050
     FM230100 08005KT P6SM SCT050 BKN120 OVC250
     FM230700 05005KT 4SM BR FEW015 SCT120=



000
FTUS43 KDTX 221100
TAFFNT
TAF
KFNT 221120Z 2212/2312 VRB03KT 5SM BR BKN018
     FM221400 08005KT P6SM SCT015 BKN070
     FM221900 14005KT P6SM SCT030 BKN050
     FM230100 08005KT P6SM SCT050 BKN120 OVC250
     FM230700 05005KT 4SM BR FEW015 SCT120=



000
FTUS43 KDTX 221100
TAFDET
TAF
KDET 221120Z 2212/2312 08003KT P6SM OVC016
     FM221500 08005KT P6SM SCT015 BKN070
     FM221900 14005KT P6SM SCT030 BKN050
     FM230100 08005KT P6SM SCT050 BKN120 OVC250
     FM230700 05005KT 4SM BR FEW015 SCT120=



000
FTUS43 KDTX 221100
TAFMBS
TAF
KMBS 221120Z 2212/2312 08005KT 5SM BR BKN025
     FM221400 08005KT P6SM SCT015 BKN070
     FM221900 14005KT P6SM SCT030 BKN050
     FM230100 08005KT P6SM SCT050 BKN120 OVC250
     FM230700 05005KT 4SM BR FEW015 SCT120=



000
FTUS43 KDTX 221100
TAFDTW
TAF
KDTW 221120Z 2212/2318 VRB03KT 3SM BR OVC004
     FM221300 08005KT 6SM BR BKN006
     FM221500 08005KT P6SM SCT015 BKN070
     FM221900 14005KT P6SM SCT030 BKN050
     FM230100 08005KT P6SM SCT050 BKN120 OVC250
     FM230700 05005KT 4SM BR FEW015 SCT120
     FM231300 07005KT P6SM SCT150=



000
FTUS43 KDTX 220800 AAA
TAFDET
TAF AMD
KDET 220825Z 2208/2306 VRB03KT 6SM BR SCT020
      TEMPO 2209/2212 4SM BR OVC015
     FM221200 09005KT 6SM BR BKN035
     FM221900 14005KT P6SM BKN050
     FM230100 09005KT P6SM SCT050 BKN120 OVC250=



000
FTUS43 KDTX 220800 AAA
TAFDTW
TAF AMD
KDTW 220823Z 2208/2312 VRB03KT 4SM BR SCT007 BKN012
      TEMPO 2209/2210 2SM BR BKN007
     FM221000 VRB03KT 2SM BR BKN007
     FM221200 09005KT 6SM BR BKN025
     FM221900 14005KT P6SM BKN050
     FM230100 09005KT P6SM SCT050 BKN120 OVC250
     FM230700 06005KT P6SM SCT120=



000
FTUS43 KDTX 220500
TAFDET
TAF
KDET 220528Z 2206/2306 30005KT 4SM BR SCT040 BKN100
     FM220800 VRB03KT 2SM BR SCT100
      TEMPO 2210/2214 4SM -SHRA BR OVC025
     FM221400 09005KT 6SM BR BKN035
     FM221900 14005KT P6SM BKN050
     FM230100 09005KT P6SM SCT050 BKN120 OVC250=



000
FTUS43 KDTX 220500
TAFDTW
TAF
KDTW 220528Z 2206/2312 23005KT 4SM BR SCT040 BKN100
     FM220800 VRB03KT 2SM BR SCT100
      TEMPO 2210/2214 4SM -SHRA BR OVC025
     FM221400 09005KT 6SM BR BKN035
     FM221900 14005KT P6SM BKN050
     FM230100 09005KT P6SM SCT050 BKN120 OVC250
     FM230700 06005KT P6SM SCT120=



000
FTUS43 KDTX 220500
TAFMBS
TAF
KMBS 220528Z 2206/2306 07005KT P6SM BKN040 OVC070
     FM221000 VRB03KT 4SM -SHRA BR OVC025
     FM221400 09005KT 6SM BR BKN035
     FM221900 14005KT P6SM BKN050
     FM230100 09005KT P6SM SCT050 BKN120 OVC250=



000
FTUS43 KDTX 220500
TAFFNT
TAF
KFNT 220528Z 2206/2306 07005KT P6SM SCT035 BKN070
     FM221000 VRB03KT 4SM -SHRA BR OVC025
     FM221400 09005KT 6SM BR BKN035
     FM221900 14005KT P6SM BKN050
     FM230100 09005KT P6SM SCT050 BKN120 OVC250=



000
FTUS43 KDTX 220300 AAA
TAFDTW
TAF AMD
KDTW 220308Z 2203/2306 23005KT 6SM -SHRA SCT040 BKN100
     FM221000 VRB03KT 4SM -SHRA BR OVC025
     FM221400 09005KT 6SM BR OVC035
     FM221900 14005KT P6SM BKN050
     FM230100 09005KT P6SM SCT050 BKN120 OVC250=



000
FTUS43 KDTX 220100 AAA
TAFDET
TAF AMD
KDET 220144Z 2202/2224 18005KT 6SM -SHRA BKN045 OVC080
      TEMPO 2202/2204 2SM TSRA OVC025CB
     FM220400 23005KT P6SM SCT045 BKN080 OVC200
     FM221000 VRB03KT 4SM -SHRA BR OVC025
     FM221400 09005KT 6SM BR OVC035
     FM221900 14005KT P6SM BKN050=



000
FTUS43 KDTX 212300
TAFFNT
TAF
KFNT 212328Z 2200/2224 03005KT P6SM SCT045 BKN200
     FM221000 VRB03KT 3SM -SHRA BR OVC025
     FM221400 09005KT 6SM BR OVC035
     FM221900 14005KT P6SM BKN050=



000
FTUS43 KDTX 212300
TAFMBS
TAF
KMBS 212328Z 2200/2224 04005KT P6SM SCT045 BKN200
     FM221000 VRB03KT 3SM -SHRA BR OVC025
     FM221400 09005KT 6SM BR OVC035
     FM221900 14005KT P6SM BKN050=



000
FTUS43 KDTX 212300
TAFDTW
TAF
KDTW 212328Z 2200/2306 23005KT 6SM -SHRA BKN045 OVC080
     FM220200 23005KT P6SM SCT045 BKN080 OVC200
     FM221000 VRB03KT 4SM -SHRA BR OVC025
     FM221400 09005KT 6SM BR OVC035
     FM221900 14005KT P6SM BKN050
     FM230100 09005KT P6SM SCT050 BKN120 OVC250=



000
FTUS43 KDTX 212300
TAFDET
TAF
KDET 212328Z 2200/2224 18005KT 6SM -SHRA BKN045 OVC080
     FM220200 23005KT P6SM SCT045 BKN080 OVC200
     FM221000 VRB03KT 4SM -SHRA BR OVC025
     FM221400 09005KT 6SM BR OVC035
     FM221900 14005KT P6SM BKN050=



000
FTUS43 KDTX 212200 AAB
TAFMBS
TAF AMD
KMBS 212210Z 2122/2218 23005KT 6SM -SHRA BKN045 OVC200
     FM220100 07005KT P6SM SCT045 BKN100 OVC200
     FM221300 14005KT 4SM -SHRA BR BKN020 OVC045=



000
FTUS43 KDTX 212200 AAB
TAFFNT
TAF AMD
KFNT 212208Z 2122/2218 24005KT 6SM -SHRA SCT025 BKN045 OVC100
     FM220100 VRB03KT P6SM SCT045 BKN100 OVC200
     FM221200 13009KT 4SM -SHRA BR OVC020=



000
FTUS43 KDTX 212100 AAB
TAFDET
TAF AMD
KDET 212116Z 2121/2218 16007KT 6SM -SHRA SCT045 BKN080
      TEMPO 2123/2202 2SM TSRA OVC030CB
     FM220200 18005KT 6SM -SHRA OVC045
     FM221300 09005KT 4SM -SHRA BR OVC020=



000
FTUS43 KDTX 212100 AAB
TAFDTW
TAF AMD
KDTW 212112Z 2121/2224 14007KT 6SM -SHRA BKN045 OVC080
      TEMPO 2122/2201 2SM TSRA OVC030CB
     FM220100 18005KT 6SM -SHRA OVC045
     FM221300 09005KT 4SM -SHRA BR OVC020
     FM221900 14005KT 3SM -SHRA BR BKN035 OVC050=



000
FTUS43 KDTX 211900 AAA
TAFDET
TAF AMD
KDET 211941Z 2120/2218 13007KT P6SM SCT025 OVC045
      TEMPO 2120/2123 OVC025
     FM220100 VRB03KT 2SM SHRA BR OVC045
     FM221300 09005KT 4SM -SHRA BR OVC020=



000
FTUS43 KDTX 211900 AAA
TAFMBS
TAF AMD
KMBS 211939Z 2120/2218 07005KT P6SM SCT045 BKN200
     FM220300 10003KT 2SM SHRA BR OVC030
     FM221300 14005KT 4SM -SHRA BR BKN020 OVC045=



000
FTUS43 KDTX 211900 AAA
TAFFNT
TAF AMD
KFNT 211934Z 2120/2218 09006KT P6SM SCT025 BKN040 OVC200
      TEMPO 2120/2123 OVC025
     FM220100 VRB03KT 2SM SHRA BR BKN010 OVC030
     FM221200 13009KT 4SM -SHRA BR OVC020=



000
FTUS43 KDTX 211900 AAA
TAFDTW
TAF AMD
KDTW 211929Z 2119/2224 16007KT P6SM OVC040
     FM220100 VRB03KT 2SM SHRA BR OVC045
     FM221300 09005KT 4SM -SHRA BR OVC020
     FM221900 14005KT 3SM -SHRA BR BKN035 OVC050=



000
FTUS43 KDTX 211700
TAFDET
TAF
KDET 211720Z 2118/2218 15010KT P6SM SCT025 OVC045
      TEMPO 2118/2122 5SM -TSRA OVC025CB
     FM220100 VRB03KT 2SM SHRA BR OVC045
     FM221300 09005KT 4SM -SHRA BR OVC020=



000
FTUS43 KDTX 211700
TAFDTW
TAF
KDTW 211720Z 2118/2224 17010KT P6SM SCT020 OVC040
      TEMPO 2118/2122 5SM -TSRA OVC025CB
     FM220100 VRB03KT 2SM SHRA BR OVC045
     FM221300 09005KT 4SM -SHRA BR OVC020
     FM221900 14005KT 3SM -SHRA BR BKN035 OVC050=



000
FTUS43 KDTX 211700
TAFFNT
TAF
KFNT 211720Z 2118/2218 09006KT P6SM SCT030 OVC045
      TEMPO 2119/2123 5SM -RA OVC025
     FM220300 VRB03KT 2SM SHRA BR BKN010 OVC030
     FM221200 13009KT 4SM -SHRA BR OVC020=



000
FTUS43 KDTX 211700
TAFMBS
TAF
KMBS 211720Z 2118/2218 04005KT P6SM SCT030 OVC045
     FM220500 10003KT 2SM SHRA BR OVC030
     FM221300 14005KT 4SM -SHRA BR BKN020 OVC045=



000
FTUS43 KDTX 211500 AAB
TAFDTW
TAF AMD
KDTW 211506Z 2115/2218 15006KT P6SM SCT040 BKN200
     FM211900 27007KT 6SM -SHRA SCT025 OVC045
     FM220100 VRB03KT 4SM SHRA BR OVC045
     FM221300 15005KT 3SM -SHRA BR OVC020=



000
FTUS43 KDTX 211300 AAA
TAFDTW
TAF AMD
KDTW 211342Z 2114/2218 08005KT P6SM BKN040
     FM211900 27007KT 6SM -SHRA SCT025 OVC045
     FM220100 VRB03KT 4SM SHRA BR OVC045
     FM221300 15005KT 3SM -SHRA BR OVC020=



000
FTUS43 KDTX 211300 AAA
TAFMBS
TAF AMD
KMBS 211342Z 2114/2212 04005KT P6SM BKN035
     FM211900 04007KT P6SM SCT045
     FM220100 VRB03KT P6SM OVC045
     FM220600 VRB02KT 6SM -SHRA OVC040=



000
FTUS43 KDTX 211300 AAA
TAFFNT
TAF AMD
KFNT 211342Z 2114/2212 09005KT P6SM BKN035
     FM211900 04007KT P6SM SCT045
     FM220100 VRB03KT P6SM OVC045
     FM220600 VRB02KT 6SM -SHRA OVC040=



000
FTUS43 KDTX 211300 AAA
TAFDET
TAF AMD
KDET 211342Z 2114/2212 08005KT P6SM BKN040
     FM211900 27007KT P6SM SCT045
     FM220200 VRB03KT 4SM -SHRA OVC045=



000
FTUS43 KDTX 211100
TAFDTW
TAF
KDTW 211138Z 2112/2218 VRB03KT P6SM SCT040 BKN080
      TEMPO 2112/2114 3SM BR
     FM211400 27005KT P6SM BKN040
     FM211900 27007KT P6SM SCT045 PROB30 2122/2201 2SM TSRA OVC025CB
     FM220100 VRB03KT 6SM -SHRA OVC045
     FM221300 15005KT 3SM -SHRA OVC020=



000
FTUS43 KDTX 211100
TAFDET
TAF
KDET 211138Z 2112/2212 VRB03KT P6SM SCT040 SCT080
      TEMPO 2112/2114 3SM BR
     FM211400 27005KT P6SM BKN040
     FM211900 27007KT P6SM SCT045
     FM220200 VRB03KT 6SM -SHRA OVC045=



000
FTUS43 KDTX 211100
TAFMBS
TAF
KMBS 211138Z 2112/2212 VRB03KT P6SM SCT020
      TEMPO 2112/2114 3SM BR
     FM211400 30005KT P6SM BKN035
     FM211900 04007KT P6SM SCT045
     FM220100 VRB03KT P6SM OVC045
     FM220600 VRB02KT 6SM -SHRA OVC040=



000
FTUS43 KDTX 211100
TAFFNT
TAF
KFNT 211138Z 2112/2212 VRB03KT P6SM SCT020
      TEMPO 2112/2114 3SM BR
     FM211400 30005KT P6SM BKN035
     FM211900 04007KT P6SM SCT045
     FM220100 VRB03KT P6SM OVC045
     FM220600 VRB02KT 6SM -SHRA OVC040=



000
FTUS43 KDTX 210800 AAA
TAFDTW
TAF AMD
KDTW 210857Z 2109/2212 VRB03KT P6SM SCT040 BKN150
     FM211000 VRB03KT 3SM BR SCT040 BKN080
     FM211400 27005KT P6SM BKN040
     FM211900 27007KT P6SM SCT045 PROB30 2122/2201 2SM TSRA OVC025CB
     FM220100 VRB03KT 6SM -SHRA OVC045=



000
FTUS43 KDTX 210500
TAFDTW
TAF
KDTW 210535Z 2106/2212 24005KT P6SM SCT040
     FM211000 VRB03KT 3SM BR SCT040 BKN080
     FM211400 27005KT P6SM BKN040
     FM211900 27007KT P6SM SCT045 PROB30 2122/2201 2SM TSRA OVC025CB
     FM220100 VRB03KT 6SM -SHRA OVC045=



000
FTUS43 KDTX 210500
TAFFNT
TAF
KFNT 210535Z 2106/2206 24005KT P6SM SCT040
     FM210800 24003KT 3SM BR SCT015
     FM211000 VRB03KT 1SM BR SCT007
     FM211200 30005KT 3SM BR BKN020
     FM211400 30005KT P6SM BKN035
     FM211900 04007KT P6SM SCT045
     FM220100 VRB03KT 6SM -SHRA OVC045=



000
FTUS43 KDTX 210500
TAFDET
TAF
KDET 210535Z 2106/2206 24005KT P6SM SCT040
     FM211000 VRB03KT 5SM BR SCT040 SCT080
     FM211400 27005KT P6SM BKN040
     FM211900 27007KT P6SM SCT045
     FM220200 VRB03KT 6SM -SHRA OVC045=



000
FTUS43 KDTX 210500
TAFMBS
TAF
KMBS 210535Z 2106/2206 30005KT P6SM SKC
     FM210800 27003KT 3SM BR BKN013
     FM211000 VRB03KT 1SM BR BKN007
     FM211200 30005KT 3SM BR BKN020
     FM211400 30005KT P6SM BKN035
     FM211900 04007KT P6SM SCT045
     FM220100 VRB03KT 6SM -SHRA OVC045=



000
FTUS43 KDTX 210300 AAA
TAFDTW
TAF AMD
KDTW 210306Z 2103/2206 25005KT P6SM SKC
     FM211000 VRB03KT 3SM BR BKN080
     FM211400 27005KT P6SM BKN035
     FM211900 27007KT P6SM SCT045 PROB30 2121/2124 2SM TSRA OVC025CB
     FM220100 VRB03KT 6SM -SHRA OVC045=



000
FTUS43 KDTX 202300
TAFFNT
TAF
KFNT 202337Z 2100/2124 31008KT P6SM SKC
     FM210800 27003KT 3SM BR SKC
     FM211000 VRB03KT 1SM BR SCT007
     FM211200 30005KT 3SM BR SCT015
     FM211400 30005KT P6SM BKN035
     FM211900 04007KT P6SM SCT045=



000
FTUS43 KDTX 202300
TAFDET
TAF
KDET 202337Z 2100/2124 30008KT P6SM SKC
     FM211000 VRB03KT 3SM BR SCT007
     FM211200 24005KT 5SM BR SCT015
     FM211400 27005KT P6SM BKN035
     FM211900 27007KT P6SM SCT045=



000
FTUS43 KDTX 202300
TAFDTW
TAF
KDTW 202337Z 2100/2206 30008KT P6SM SKC
     FM210800 27003KT 3SM BR SKC
     FM211000 VRB03KT 1SM BR SCT007
     FM211200 24005KT 3SM BR SCT015
     FM211400 27005KT P6SM BKN035
     FM211900 27007KT P6SM SCT045 PROB30 2121/2124 2SM TSRA OVC025CB
     FM220100 VRB03KT 6SM -SHRA OVC045=



000
FTUS43 KDTX 202300
TAFMBS
TAF
KMBS 202337Z 2100/2124 24008KT P6SM SCT100
     FM210800 27003KT 3SM BR SKC
     FM211000 VRB03KT 1SM BR SCT007
     FM211200 30005KT 3SM BR SCT015
     FM211400 30005KT P6SM BKN035
     FM211900 04007KT P6SM SCT045=



000
FTUS43 KDTX 202100 AAA
TAFFNT
TAF AMD
KFNT 202124Z 2021/2118 25012KT P6SM SCT045 BKN100
      TEMPO 2022/2024 5SM SHRA OVC045
     FM210100 27005KT P6SM SCT100
     FM210900 VRB03KT 3SM BR OVC015
     FM211400 25004KT P6SM BKN035=



000
FTUS43 KDTX 202100 AAA
TAFMBS
TAF AMD
KMBS 202123Z 2021/2118 24010KT P6SM BKN100
     FM210100 27005KT P6SM SCT100
     FM210900 VRB03KT 3SM BR OVC015
     FM211400 25004KT P6SM BKN035=



000
FTUS43 KDTX 202100 AAA
TAFDET
TAF AMD
KDET 202120Z 2021/2118 26012KT P6SM BKN100
     FM210000 26005KT P6SM SCT100
     FM210900 26003KT 4SM BR BKN100
     FM211300 24005KT P6SM OVC060=



000
FTUS43 KDTX 202100 AAA
TAFDTW
TAF AMD
KDTW 202118Z 2021/2124 24012KT P6SM BKN100
     FM210000 26005KT P6SM SCT100
     FM210900 26003KT 4SM BR BKN100
     FM211300 24005KT P6SM OVC060 PROB30 2118/2122 2SM TSRA
      BKN025CB=



000
FTUS43 KDTX 201700
TAFDET
TAF
KDET 201728Z 2018/2118 22005KT 6SM BR SCT010 BKN025
     FM202100 26008KT 5SM -SHRA BR OVC040
     FM210000 26004KT P6SM SCT045 BKN120
     FM210900 26003KT 4SM BR BKN100
     FM211300 24005KT P6SM OVC060=



000
FTUS43 KDTX 201700
TAFFNT
TAF
KFNT 201728Z 2018/2118 26008KT 6SM BR SCT025 BKN035
     FM202000 29009KT 6SM -SHRA OVC045
     FM210100 27005KT P6SM SCT045 BKN120
     FM210900 VRB03KT 3SM BR OVC015
     FM211400 25004KT P6SM BKN035=



000
FTUS43 KDTX 201700
TAFDTW
TAF
KDTW 201728Z 2018/2124 22005KT 6SM BR SCT015 BKN035
     FM202100 26008KT 5SM -SHRA BR OVC040
     FM210000 26004KT P6SM SCT045 BKN120
     FM210900 26003KT 4SM BR BKN100
     FM211300 24005KT P6SM OVC060 PROB30 2118/2122 2SM TSRA
      BKN025CB=



000
FTUS43 KDTX 201700
TAFMBS
TAF
KMBS 201728Z 2018/2118 26008KT 5SM SHRA SCT025 BKN035
     FM210100 27005KT P6SM SCT045 BKN120
     FM210900 VRB03KT 3SM BR OVC015
     FM211400 25004KT P6SM BKN035=



000
FTUS43 KDTX 201300 AAA
TAFDET
TAF AMD
KDET 201351Z 2014/2112 23004KT 6SM BR BKN008
     FM201600 26005KT 6SM BR BKN015
      TEMPO 2016/2018 BKN025
     FM201900 28007KT 6SM -SHRA OVC045
     FM210100 25005KT P6SM SCT045 BKN120=



000
FTUS43 KDTX 201300 AAA
TAFMBS
TAF AMD
KMBS 201340Z 2014/2112 25003KT 6SM BR OVC005
     FM201600 26005KT 6SM BR OVC015
      TEMPO 2016/2018 OVC008
     FM201900 28007KT 6SM -SHRA OVC045
     FM210100 25005KT P6SM SCT045 BKN120=



000
FTUS43 KDTX 201300 AAA
TAFFNT
TAF AMD
KFNT 201339Z 2014/2112 25005KT 6SM BR BKN006
     FM201600 27006KT 6SM BR BKN015
     FM201900 28007KT 6SM -SHRA OVC045
     FM210100 25005KT P6SM SCT045 BKN120=



000
FTUS43 KDTX 201300 AAB
TAFDTW
TAF AMD
KDTW 201334Z 2014/2118 25004KT 3SM BR BKN005
     FM201600 26005KT 5SM BR BKN015
      TEMPO 2016/2018 BKN008
     FM201900 28007KT 5SM -SHRA BR OVC040
     FM210100 25005KT P6SM SCT045 BKN120=



000
FTUS43 KDTX 201100 AAA
TAFDTW
TAF AMD
KDTW 201156Z 2012/2118 23005KT 3SM BR BKN020 OVC070
      TEMPO 2012/2014 2SM BR BKN005
     FM201400 25007KT P6SM BKN035
     FM201900 28007KT 6SM -SHRA OVC045
     FM210100 25005KT P6SM SCT045 BKN120=



000
FTUS43 KDTX 201100
TAFDET
TAF
KDET 201134Z 2012/2112 23005KT P6SM SCT020 BKN100
      TEMPO 2012/2014 5SM BR BKN020
     FM201400 25007KT P6SM BKN035
     FM201900 28007KT 6SM -SHRA OVC045
     FM210100 25005KT P6SM SCT045 BKN120=



000
FTUS43 KDTX 201100
TAFMBS
TAF
KMBS 201134Z 2012/2112 23005KT 2SM BR BKN003
      TEMPO 2012/2014 1/2SM FG OVC002
     FM201400 25007KT P6SM BKN035
     FM201900 28007KT 6SM -SHRA OVC045
     FM210100 25005KT P6SM SCT045 BKN120=



000
FTUS43 KDTX 201100
TAFFNT
TAF
KFNT 201134Z 2012/2112 23005KT P6SM BKN020
      TEMPO 2012/2014 3SM BR BKN006
     FM201400 25007KT P6SM BKN035
     FM201900 28007KT 6SM -SHRA OVC045
     FM210100 25005KT P6SM SCT045 BKN120=



000
FTUS43 KDTX 201100
TAFDTW
TAF
KDTW 201134Z 2012/2118 23005KT 3SM BR BKN020 OVC070
     FM201400 25007KT P6SM BKN035
     FM201900 28007KT 6SM -SHRA OVC045
     FM210100 25005KT P6SM SCT045 BKN120=



000
FTUS43 KDTX 200800 AAB
TAFDTW
TAF AMD
KDTW 200859Z 2009/2112 VRB03KT 3SM BR SCT015 BKN035
      TEMPO 2010/2012 1SM BR BKN007
     FM201200 23005KT 3SM BR BKN020
     FM201400 25007KT P6SM BKN035
     FM201900 28007KT 6SM -SHRA OVC045
     FM210100 25005KT P6SM SCT045 BKN120=



000
FTUS43 KDTX 200600 AAA
TAFDET
TAF AMD
KDET 200607Z 2006/2106 16005KT P6SM SCT025 BKN060 OVC150
      TEMPO 2006/2007 5SM -SHRA BKN025
     FM200800 VRB03KT 4SM BR SCT015 SCT150
      TEMPO 2010/2012 2SM BR BKN007
     FM201200 23005KT 4SM BR BKN020
     FM201400 25007KT P6SM BKN035
     FM201900 28007KT 6SM -SHRA OVC045
     FM210100 25005KT P6SM SCT045 BKN120=



000
FTUS43 KDTX 200600 AAA
TAFDTW
TAF AMD
KDTW 200606Z 2006/2112 VRB03KT P6SM SCT045 BKN060 OVC150
      TEMPO 2006/2007 6SM -SHRA SCT025 BKN045
     FM200800 VRB03KT 3SM BR SCT015 SCT150
      TEMPO 2010/2012 1SM BR BKN007
     FM201200 23005KT 3SM BR BKN020
     FM201400 25007KT P6SM BKN035
     FM201900 28007KT 6SM -SHRA OVC045
     FM210100 25005KT P6SM SCT045 BKN120=



000
FTUS43 KDTX 200500
TAFMBS
TAF
KMBS 200526Z 2006/2106 21007KT P6SM OVC012
     FM200800 18005KT 3SM BR BKN012
     FM201000 VRB03KT 1SM BR BKN007
     FM201200 23005KT 3SM BR BKN020
     FM201400 25007KT P6SM BKN035
     FM201900 28007KT 6SM -SHRA OVC045
     FM210100 25005KT P6SM SCT045 BKN120=



000
FTUS43 KDTX 200500
TAFDTW
TAF
KDTW 200526Z 2006/2112 VRB03KT P6SM SCT030 BKN060 OVC150
      TEMPO 2006/2008 25013G20KT 1SM TSRA OVC030CB
     FM200800 VRB03KT 3SM BR SCT015 SCT150
      TEMPO 2010/2012 1SM BR BKN007
     FM201200 23005KT 3SM BR BKN020
     FM201400 25007KT P6SM BKN035
     FM201900 28007KT 6SM -SHRA OVC045
     FM210100 25005KT P6SM SCT045 BKN120=



000
FTUS43 KDTX 200500
TAFFNT
TAF
KFNT 200526Z 2006/2106 18005KT P6SM SCT050 BKN250
     FM200800 VRB03KT 3SM BR BKN012 OVC150
     FM201000 VRB03KT 1SM BR BKN007
     FM201200 23005KT 3SM BR BKN020
     FM201400 25007KT P6SM BKN035
     FM201900 28007KT 6SM -SHRA OVC045
     FM210100 25005KT P6SM SCT045 BKN120=



000
FTUS43 KDTX 200500
TAFDET
TAF
KDET 200526Z 2006/2106 16005KT P6SM SCT030 BKN060 OVC150
      TEMPO 2006/2008 25013G20KT 1SM TSRA OVC030CB
     FM200800 VRB03KT 4SM BR SCT015 SCT150
      TEMPO 2010/2012 2SM BR BKN007
     FM201200 23005KT 4SM BR BKN020
     FM201400 25007KT P6SM BKN035
     FM201900 28007KT 6SM -SHRA OVC045
     FM210100 25005KT P6SM SCT045 BKN120=



000
FTUS43 KDTX 200300 AAA
TAFMBS
TAF AMD
KMBS 200328Z 2003/2024 21007KT P6SM OVC010
     FM200600 18005KT 3SM BR SCT010 SCT150
     FM200800 VRB03KT 1SM BR BKN007
     FM201200 23005KT 3SM BR BKN020
     FM201400 25007KT P6SM BKN035
     FM201900 28007KT 6SM -SHRA OVC045=



000
FTUS43 KDTX 200300 AAA
TAFFNT
TAF AMD
KFNT 200327Z 2003/2024 18005KT P6SM SCT050
      TEMPO 2004/2006 3SM TSRA OVC030CB
     FM200600 VRB03KT 3SM BR BKN012 OVC150
     FM200800 VRB03KT 1SM BR BKN007
     FM201200 23005KT 3SM BR BKN020
     FM201400 25007KT P6SM BKN035
     FM201900 28007KT 6SM -SHRA OVC045=



000
FTUS43 KDTX 200300 AAA
TAFDTW
TAF AMD
KDTW 200304Z 2003/2106 14005KT P6SM SCT080 BKN150
     FM200500 VRB03KT 3SM BR SCT012 SCT150
     FM200800 VRB03KT 1SM BR BKN007
     FM201200 23005KT 3SM BR BKN020
     FM201400 25007KT P6SM BKN035
     FM201900 28007KT 6SM -SHRA OVC045=



    US Dept of Commerce
    National Oceanic and Atmospheric Administration
    National Weather Service
    1325 East West Highway
    Silver Spring, MD 20910
    Page Author: NWS Internet Services Team
Disclaimer
Information Quality
Credits
Glossary
Privacy Policy
Freedom of Information Act (FOIA)
About Us
Career Opportunities